sensor_id;sensor_type;location;lat;lon;timestamp;pressure;altitude;pressure_sealevel;temperature;humidity
69980;BME280;57318;56.232;43.944;2023-02-01T00:02:08;98345.22;;;-3.51;76.62
69980;BME280;57318;56.232;43.944;2023-02-01T00:04:34;98334.00;;;-3.52;76.59
69980;BME280;57318;56.232;43.944;2023-02-01T00:07:00;98337.44;;;-3.51;76.69
69980;BME280;57318;56.232;43.944;2023-02-01T00:09:26;98344.44;;;-3.53;76.97
69980;BME280;57318;56.232;43.944;2023-02-01T00:11:52;98339.19;;;-3.52;76.67
69980;BME280;57318;56.232;43.944;2023-02-01T00:14:17;98344.31;;;-3.50;76.79
69980;BME280;57318;56.232;43.944;2023-02-01T00:16:43;98337.44;;;-3.51;77.09
69980;BME280;57318;56.232;43.944;2023-02-01T00:19:14;98338.19;;;-3.49;76.75
69980;BME280;57318;56.232;43.944;2023-02-01T00:21:40;98335.59;;;-3.49;76.72
69980;BME280;57318;56.232;43.944;2023-02-01T00:24:06;98333.94;;;-3.50;76.83
69980;BME280;57318;56.232;43.944;2023-02-01T00:28:58;98346.66;;;-3.44;76.56
69980;BME280;57318;56.232;43.944;2023-02-01T00:31:23;98337.19;;;-3.45;76.50
69980;BME280;57318;56.232;43.944;2023-02-01T00:33:49;98344.13;;;-3.46;76.57
69980;BME280;57318;56.232;43.944;2023-02-01T00:36:15;98341.59;;;-3.47;76.87
69980;BME280;57318;56.232;43.944;2023-02-01T00:38:41;98340.66;;;-3.46;76.87
69980;BME280;57318;56.232;43.944;2023-02-01T00:41:10;98339.06;;;-3.49;77.07
69980;BME280;57318;56.232;43.944;2023-02-01T00:43:36;98339.00;;;-3.47;76.76
69980;BME280;57318;56.232;43.944;2023-02-01T00:46:02;98339.00;;;-3.47;76.89
69980;BME280;57318;56.232;43.944;2023-02-01T00:48:28;98328.63;;;-3.47;76.80
69980;BME280;57318;56.232;43.944;2023-02-01T00:50:54;98337.19;;;-3.45;76.99
69980;BME280;57318;56.232;43.944;2023-02-01T00:53:20;98342.38;;;-3.45;76.72
69980;BME280;57318;56.232;43.944;2023-02-01T00:55:46;98344.91;;;-3.43;76.77
69980;BME280;57318;56.232;43.944;2023-02-01T00:58:12;98347.50;;;-3.43;76.88
69980;BME280;57318;56.232;43.944;2023-02-01T01:00:37;98332.81;;;-3.45;77.01
69980;BME280;57318;56.232;43.944;2023-02-01T01:03:03;98341.53;;;-3.46;76.88
69980;BME280;57318;56.232;43.944;2023-02-01T01:05:44;98338.19;;;-3.49;77.11
69980;BME280;57318;56.232;43.944;2023-02-01T01:08:10;98335.41;;;-3.45;77.11
69980;BME280;57318;56.232;43.944;2023-02-01T01:10:35;98321.72;;;-3.48;76.96
69980;BME280;57318;56.232;43.944;2023-02-01T01:13:01;98329.44;;;-3.47;76.86
69980;BME280;57318;56.232;43.944;2023-02-01T01:15:26;98330.28;;;-3.46;76.76
69980;BME280;57318;56.232;43.944;2023-02-01T01:17:52;98328.75;;;-3.50;77.08
69980;BME280;57318;56.232;43.944;2023-02-01T01:20:17;98326.91;;;-3.48;77.29
69980;BME280;57318;56.232;43.944;2023-02-01T01:22:49;98325.22;;;-3.49;77.10
69980;BME280;57318;56.232;43.944;2023-02-01T01:25:15;98329.56;;;-3.50;77.26
69980;BME280;57318;56.232;43.944;2023-02-01T01:27:40;98327.03;;;-3.51;77.36
69980;BME280;57318;56.232;43.944;2023-02-01T01:30:06;98334.00;;;-3.52;77.07
69980;BME280;57318;56.232;43.944;2023-02-01T01:32:33;98324.44;;;-3.51;77.25
69980;BME280;57318;56.232;43.944;2023-02-01T01:34:58;98321.00;;;-3.52;77.31
69980;BME280;57318;56.232;43.944;2023-02-01T01:37:24;98320.22;;;-3.54;77.29
69980;BME280;57318;56.232;43.944;2023-02-01T01:39:49;98327.16;;;-3.54;77.67
69980;BME280;57318;56.232;43.944;2023-02-01T01:42:15;98328.06;;;-3.55;77.67
69980;BME280;57318;56.232;43.944;2023-02-01T01:45:04;98319.44;;;-3.56;77.54
69980;BME280;57318;56.232;43.944;2023-02-01T01:47:45;98335.97;;;-3.58;77.60
69980;BME280;57318;56.232;43.944;2023-02-01T01:50:15;98342.16;;;-3.61;77.87
69980;BME280;57318;56.232;43.944;2023-02-01T01:52:43;98339.56;;;-3.61;77.88
69980;BME280;57318;56.232;43.944;2023-02-01T01:55:13;98337.03;;;-3.63;77.98
69980;BME280;57318;56.232;43.944;2023-02-01T01:57:43;98344.81;;;-3.63;77.97
69980;BME280;57318;56.232;43.944;2023-02-01T02:00:12;98342.09;;;-3.59;77.93
69980;BME280;57318;56.232;43.944;2023-02-01T02:02:40;98356.75;;;-3.58;77.97
69980;BME280;57318;56.232;43.944;2023-02-01T02:05:08;98343.00;;;-3.60;77.79
69980;BME280;57318;56.232;43.944;2023-02-01T02:07:36;98348.13;;;-3.59;77.82
69980;BME280;57318;56.232;43.944;2023-02-01T02:10:08;98346.22;;;-3.55;77.94
69980;BME280;57318;56.232;43.944;2023-02-01T02:12:38;98352.41;;;-3.58;77.80
69980;BME280;57318;56.232;43.944;2023-02-01T02:15:06;98354.94;;;-3.56;78.01
69980;BME280;57318;56.232;43.944;2023-02-01T02:34:32;98358.63;;;-3.62;78.08
69980;BME280;57318;56.232;43.944;2023-02-01T02:37:19;98370.78;;;-3.63;77.92
69980;BME280;57318;56.232;43.944;2023-02-01T02:40:14;98364.75;;;-3.63;78.32
69980;BME280;57318;56.232;43.944;2023-02-01T02:45:47;98357.91;;;-3.66;78.12
69980;BME280;57318;56.232;43.944;2023-02-01T02:51:29;98370.94;;;-3.67;78.34
69980;BME280;57318;56.232;43.944;2023-02-01T02:54:21;98366.72;;;-3.70;78.17
69980;BME280;57318;56.232;43.944;2023-02-01T02:57:08;98356.44;;;-3.73;78.38
69980;BME280;57318;56.232;43.944;2023-02-01T02:59:54;98360.75;;;-3.72;78.26
69980;BME280;57318;56.232;43.944;2023-02-01T03:02:39;98358.28;;;-3.75;78.38
69980;BME280;57318;56.232;43.944;2023-02-01T03:05:23;98371.25;;;-3.75;78.48
69980;BME280;57318;56.232;43.944;2023-02-01T03:08:03;98375.59;;;-3.75;78.70
69980;BME280;57318;56.232;43.944;2023-02-01T03:10:41;98374.75;;;-3.76;78.46
69980;BME280;57318;56.232;43.944;2023-02-01T03:15:59;98378.03;;;-3.71;78.40
69980;BME280;57318;56.232;43.944;2023-02-01T03:18:55;98385.00;;;-3.73;78.54
69980;BME280;57318;56.232;43.944;2023-02-01T03:21:46;98379.81;;;-3.73;78.39
69980;BME280;57318;56.232;43.944;2023-02-01T03:27:14;98376.44;;;-3.75;78.45
69980;BME280;57318;56.232;43.944;2023-02-01T03:29:48;98375.59;;;-3.75;78.38
69980;BME280;57318;56.232;43.944;2023-02-01T03:32:15;98376.56;;;-3.78;78.94
69980;BME280;57318;56.232;43.944;2023-02-01T03:34:42;98379.09;;;-3.76;78.65
69980;BME280;57318;56.232;43.944;2023-02-01T03:37:09;98378.25;;;-3.77;79.10
69980;BME280;57318;56.232;43.944;2023-02-01T03:39:40;98382.66;;;-3.79;79.34
69980;BME280;57318;56.232;43.944;2023-02-01T03:42:20;98388.00;;;-3.84;79.35
69980;BME280;57318;56.232;43.944;2023-02-01T03:45:00;98382.16;;;-3.89;79.09
69980;BME280;57318;56.232;43.944;2023-02-01T03:47:30;98393.47;;;-3.90;79.49
69980;BME280;57318;56.232;43.944;2023-02-01T03:50:04;98387.28;;;-3.87;79.40
69980;BME280;57318;56.232;43.944;2023-02-01T03:52:36;98385.47;;;-3.85;79.31
69980;BME280;57318;56.232;43.944;2023-02-01T03:55:05;98394.06;;;-3.83;79.38
69980;BME280;57318;56.232;43.944;2023-02-01T03:57:39;98400.94;;;-3.82;79.45
69980;BME280;57318;56.232;43.944;2023-02-01T04:00:15;98392.31;;;-3.83;79.17
69980;BME280;57318;56.232;43.944;2023-02-01T04:02:41;98401.81;;;-3.82;79.28
69980;BME280;57318;56.232;43.944;2023-02-01T04:05:07;98403.41;;;-3.79;79.24
69980;BME280;57318;56.232;43.944;2023-02-01T04:07:33;98414.72;;;-3.80;79.17
69980;BME280;57318;56.232;43.944;2023-02-01T04:09:58;98414.78;;;-3.82;79.04
69980;BME280;57318;56.232;43.944;2023-02-01T04:12:24;98412.19;;;-3.82;78.99
69980;BME280;57318;56.232;43.944;2023-02-01T04:14:49;98419.91;;;-3.80;79.25
69980;BME280;57318;56.232;43.944;2023-02-01T04:17:15;98415.63;;;-3.81;79.07
69980;BME280;57318;56.232;43.944;2023-02-01T04:19:41;98425.09;;;-3.80;79.09
69980;BME280;57318;56.232;43.944;2023-02-01T04:22:07;98419.03;;;-3.81;78.84
69980;BME280;57318;56.232;43.944;2023-02-01T04:24:34;98425.09;;;-3.80;78.86
69980;BME280;57318;56.232;43.944;2023-02-01T04:26:59;98427.69;;;-3.80;78.82
69980;BME280;57318;56.232;43.944;2023-02-01T04:29:25;98426.72;;;-3.77;78.67
69980;BME280;57318;56.232;43.944;2023-02-01T04:31:50;98438.84;;;-3.78;78.68
69980;BME280;57318;56.232;43.944;2023-02-01T04:34:16;98438.03;;;-3.78;78.79
69980;BME280;57318;56.232;43.944;2023-02-01T04:36:41;98434.56;;;-3.79;78.51
69980;BME280;57318;56.232;43.944;2023-02-01T04:39:09;98434.44;;;-3.76;78.63
69980;BME280;57318;56.232;43.944;2023-02-01T04:41:34;98447.53;;;-3.79;78.54
69980;BME280;57318;56.232;43.944;2023-02-01T04:44:00;98426.00;;;-3.81;78.68
69980;BME280;57318;56.232;43.944;2023-02-01T04:46:26;98436.38;;;-3.81;78.93
69980;BME280;57318;56.232;43.944;2023-02-01T04:48:51;98444.16;;;-3.81;78.62
69980;BME280;57318;56.232;43.944;2023-02-01T04:51:17;98434.69;;;-3.82;78.61
69980;BME280;57318;56.232;43.944;2023-02-01T04:53:44;98433.91;;;-3.84;78.64
69980;BME280;57318;56.232;43.944;2023-02-01T04:56:09;98437.31;;;-3.84;78.90
69980;BME280;57318;56.232;43.944;2023-02-01T04:58:35;98443.44;;;-3.85;78.68
69980;BME280;57318;56.232;43.944;2023-02-01T05:01:05;98444.44;;;-3.89;78.66
69980;BME280;57318;56.232;43.944;2023-02-01T05:03:32;98458.41;;;-3.91;78.91
69980;BME280;57318;56.232;43.944;2023-02-01T05:05:58;98452.28;;;-3.90;78.95
69980;BME280;57318;56.232;43.944;2023-02-01T05:08:24;98452.34;;;-3.92;78.74
69980;BME280;57318;56.232;43.944;2023-02-01T05:10:51;98467.09;;;-3.92;78.79
69980;BME280;57318;56.232;43.944;2023-02-01T05:13:17;98456.94;;;-3.99;78.79
69980;BME280;57318;56.232;43.944;2023-02-01T05:16:01;98451.97;;;-4.05;79.13
69980;BME280;57318;56.232;43.944;2023-02-01T05:18:27;98446.81;;;-4.06;79.25
69980;BME280;57318;56.232;43.944;2023-02-01T05:20:52;98460.75;;;-4.09;79.23
69980;BME280;57318;56.232;43.944;2023-02-01T05:23:18;98456.47;;;-4.10;79.37
69980;BME280;57318;56.232;43.944;2023-02-01T05:25:44;98454.78;;;-4.11;79.32
69980;BME280;57318;56.232;43.944;2023-02-01T05:28:09;98459.06;;;-4.10;79.39
69980;BME280;57318;56.232;43.944;2023-02-01T05:30:35;98462.56;;;-4.11;79.12
69980;BME280;57318;56.232;43.944;2023-02-01T05:33:01;98465.03;;;-4.08;79.31
69980;BME280;57318;56.232;43.944;2023-02-01T05:35:27;98451.22;;;-4.08;78.96
69980;BME280;57318;56.232;43.944;2023-02-01T05:37:52;98462.44;;;-4.08;79.19
69980;BME280;57318;56.232;43.944;2023-02-01T05:40:19;98460.75;;;-4.09;79.22
69980;BME280;57318;56.232;43.944;2023-02-01T05:42:45;98465.09;;;-4.09;79.30
69980;BME280;57318;56.232;43.944;2023-02-01T05:45:11;98454.78;;;-4.11;78.75
69980;BME280;57318;56.232;43.944;2023-02-01T05:47:36;98462.22;;;-4.02;78.65
69980;BME280;57318;56.232;43.944;2023-02-01T05:50:03;98470.63;;;-3.95;78.30
69980;BME280;57318;56.232;43.944;2023-02-01T05:52:29;98472.94;;;-3.87;78.13
69980;BME280;57318;56.232;43.944;2023-02-01T05:54:55;98478.56;;;-3.76;77.83
69980;BME280;57318;56.232;43.944;2023-02-01T05:57:20;98483.19;;;-3.60;76.95
69980;BME280;57318;56.232;43.944;2023-02-01T05:59:46;98463.19;;;-3.58;76.77
69980;BME280;57318;56.232;43.944;2023-02-01T06:02:15;98482.63;;;-3.45;76.03
69980;BME280;57318;56.232;43.944;2023-02-01T06:04:41;98482.16;;;-3.33;75.64
69980;BME280;57318;56.232;43.944;2023-02-01T06:07:07;98481.66;;;-3.20;75.07
69980;BME280;57318;56.232;43.944;2023-02-01T06:09:35;98486.75;;;-3.17;74.90
69980;BME280;57318;56.232;43.944;2023-02-01T06:12:01;98477.00;;;-3.12;74.27
69980;BME280;57318;56.232;43.944;2023-02-01T06:14:27;98482.97;;;-3.10;74.30
69980;BME280;57318;56.232;43.944;2023-02-01T06:16:56;98489.50;;;-3.00;74.24
69980;BME280;57318;56.232;43.944;2023-02-01T06:19:22;98506.66;;;-2.96;73.89
69980;BME280;57318;56.232;43.944;2023-02-01T06:21:48;98497.72;;;-2.88;73.52
69980;BME280;57318;56.232;43.944;2023-02-01T06:24:14;98504.50;;;-2.84;73.16
69980;BME280;57318;56.232;43.944;2023-02-01T06:26:40;98500.00;;;-2.81;72.87
69980;BME280;57318;56.232;43.944;2023-02-01T06:29:06;98493.28;;;-2.86;72.89
69980;BME280;57318;56.232;43.944;2023-02-01T06:31:33;98504.97;;;-2.75;72.82
69980;BME280;57318;56.232;43.944;2023-02-01T06:33:58;98504.66;;;-2.67;72.28
69980;BME280;57318;56.232;43.944;2023-02-01T06:36:24;98495.16;;;-2.68;71.99
69980;BME280;57318;56.232;43.944;2023-02-01T06:38:50;98500.81;;;-2.58;72.04
69980;BME280;57318;56.232;43.944;2023-02-01T06:41:15;98516.03;;;-2.49;71.47
69980;BME280;57318;56.232;43.944;2023-02-01T06:43:41;98515.91;;;-2.46;71.22
69980;BME280;57318;56.232;43.944;2023-02-01T06:46:10;98506.09;;;-2.39;70.97
69980;BME280;57318;56.232;43.944;2023-02-01T06:48:36;98505.19;;;-2.38;70.85
69980;BME280;57318;56.232;43.944;2023-02-01T06:51:02;98511.16;;;-2.36;70.59
69980;BME280;57318;56.232;43.944;2023-02-01T06:53:28;98514.44;;;-2.31;69.98
69980;BME280;57318;56.232;43.944;2023-02-01T06:56:00;98521.75;;;-2.20;69.93
69980;BME280;57318;56.232;43.944;2023-02-01T06:58:31;98518.44;;;-2.03;69.50
69980;BME280;57318;56.232;43.944;2023-02-01T07:00:58;98517.75;;;-1.88;68.91
69980;BME280;57318;56.232;43.944;2023-02-01T07:03:24;98513.72;;;-1.74;68.07
69980;BME280;57318;56.232;43.944;2023-02-01T07:05:49;98517.91;;;-1.72;67.79
69980;BME280;57318;56.232;43.944;2023-02-01T07:08:15;98520.53;;;-1.72;67.94
69980;BME280;57318;56.232;43.944;2023-02-01T07:10:41;98522.69;;;-1.82;67.98
69980;BME280;57318;56.232;43.944;2023-02-01T07:13:06;98542.84;;;-1.85;68.21
69980;BME280;57318;56.232;43.944;2023-02-01T07:15:32;98527.41;;;-1.90;68.25
69980;BME280;57318;56.232;43.944;2023-02-01T07:17:58;98533.31;;;-1.86;68.36
69980;BME280;57318;56.232;43.944;2023-02-01T07:20:24;98536.00;;;-1.88;68.12
69980;BME280;57318;56.232;43.944;2023-02-01T07:22:54;98535.22;;;-1.90;68.18
69980;BME280;57318;56.232;43.944;2023-02-01T07:25:21;98529.75;;;-1.84;68.21
69980;BME280;57318;56.232;43.944;2023-02-01T07:27:47;98527.84;;;-1.80;67.99
69980;BME280;57318;56.232;43.944;2023-02-01T07:30:12;98529.47;;;-1.77;68.02
69980;BME280;57318;56.232;43.944;2023-02-01T07:32:38;98527.91;;;-1.82;67.86
69980;BME280;57318;56.232;43.944;2023-02-01T07:35:04;98525.50;;;-1.86;67.76
69980;BME280;57318;56.232;43.944;2023-02-01T07:37:29;98529.34;;;-1.74;68.08
69980;BME280;57318;56.232;43.944;2023-02-01T07:39:56;98530.75;;;-1.67;67.51
69980;BME280;57318;56.232;43.944;2023-02-01T07:42:21;98529.97;;;-1.69;67.65
69980;BME280;57318;56.232;43.944;2023-02-01T07:44:47;98529.06;;;-1.68;67.54
69980;BME280;57318;56.232;43.944;2023-02-01T07:47:12;98528.41;;;-1.73;67.60
69980;BME280;57318;56.232;43.944;2023-02-01T07:49:38;98535.38;;;-1.74;67.61
69980;BME280;57318;56.232;43.944;2023-02-01T07:52:03;98535.84;;;-1.85;67.91
69980;BME280;57318;56.232;43.944;2023-02-01T07:54:29;98537.03;;;-1.92;68.39
69980;BME280;57318;56.232;43.944;2023-02-01T07:56:55;98530.16;;;-1.93;68.60
69980;BME280;57318;56.232;43.944;2023-02-01T07:59:21;98534.50;;;-1.93;68.64
69980;BME280;57318;56.232;43.944;2023-02-01T08:01:46;98538.84;;;-1.94;68.61
69980;BME280;57318;56.232;43.944;2023-02-01T08:04:12;98529.28;;;-1.93;68.56
69980;BME280;57318;56.232;43.944;2023-02-01T08:06:39;98538.72;;;-1.91;68.22
69980;BME280;57318;56.232;43.944;2023-02-01T08:09:05;98543.03;;;-1.90;68.56
69980;BME280;57318;56.232;43.944;2023-02-01T08:11:33;98538.47;;;-1.85;68.67
69980;BME280;57318;56.232;43.944;2023-02-01T08:13:59;98535.53;;;-1.77;68.67
69980;BME280;57318;56.232;43.944;2023-02-01T08:16:25;98536.66;;;-1.64;68.56
69980;BME280;57318;56.232;43.944;2023-02-01T08:18:51;98535.25;;;-1.52;68.32
69980;BME280;57318;56.232;43.944;2023-02-01T08:21:23;98530.69;;;-1.47;68.63
69980;BME280;57318;56.232;43.944;2023-02-01T08:23:49;98531.47;;;-1.44;68.85
69980;BME280;57318;56.232;43.944;2023-02-01T08:26:21;98536.25;;;-1.35;69.84
69980;BME280;57318;56.232;43.944;2023-02-01T08:28:49;98544.13;;;-1.37;69.52
69980;BME280;57318;56.232;43.944;2023-02-01T08:31:17;98543.28;;;-1.37;69.82
69980;BME280;57318;56.232;43.944;2023-02-01T08:33:48;98535.81;;;-1.45;69.75
69980;BME280;57318;56.232;43.944;2023-02-01T08:36:15;98526.69;;;-1.54;70.48
69980;BME280;57318;56.232;43.944;2023-02-01T08:38:40;98540.19;;;-1.65;71.09
69980;BME280;57318;56.232;43.944;2023-02-01T08:41:08;98535.72;;;-1.82;71.81
69980;BME280;57318;56.232;43.944;2023-02-01T08:43:35;98537.50;;;-1.82;72.42
69980;BME280;57318;56.232;43.944;2023-02-01T08:46:01;98534.69;;;-1.77;72.75
69980;BME280;57318;56.232;43.944;2023-02-01T08:48:27;98539.75;;;-1.74;73.35
69980;BME280;57318;56.232;43.944;2023-02-01T08:50:53;98533.56;;;-1.72;73.48
69980;BME280;57318;56.232;43.944;2023-02-01T08:53:18;98540.88;;;-1.61;73.55
69980;BME280;57318;56.232;43.944;2023-02-01T08:55:45;98545.91;;;-1.56;73.40
69980;BME280;57318;56.232;43.944;2023-02-01T08:58:12;98540.81;;;-1.59;73.51
69980;BME280;57318;56.232;43.944;2023-02-01T09:00:40;98541.78;;;-1.62;73.47
69980;BME280;57318;56.232;43.944;2023-02-01T09:03:05;98535.81;;;-1.64;73.65
69980;BME280;57318;56.232;43.944;2023-02-01T09:05:31;98533.97;;;-1.62;73.79
69980;BME280;57318;56.232;43.944;2023-02-01T09:07:56;98537.09;;;-1.54;73.62
69980;BME280;57318;56.232;43.944;2023-02-01T09:10:22;98543.00;;;-1.50;73.61
69980;BME280;57318;56.232;43.944;2023-02-01T09:12:48;98543.56;;;-1.43;73.07
69980;BME280;57318;56.232;43.944;2023-02-01T09:15:13;98534.72;;;-1.39;72.75
69980;BME280;57318;56.232;43.944;2023-02-01T09:17:39;98536.56;;;-1.41;72.92
69980;BME280;57318;56.232;43.944;2023-02-01T09:20:07;98534.28;;;-1.30;73.05
69980;BME280;57318;56.232;43.944;2023-02-01T09:22:33;98541.16;;;-1.29;72.60
69980;BME280;57318;56.232;43.944;2023-02-01T09:24:58;98543.88;;;-1.12;72.43
69980;BME280;57318;56.232;43.944;2023-02-01T09:27:24;98541.88;;;-1.06;72.36
69980;BME280;57318;56.232;43.944;2023-02-01T09:29:49;98540.19;;;-1.07;72.02
69980;BME280;57318;56.232;43.944;2023-02-01T09:32:20;98539.28;;;-1.06;72.27
69980;BME280;57318;56.232;43.944;2023-02-01T09:34:45;98532.22;;;-1.04;72.25
69980;BME280;57318;56.232;43.944;2023-02-01T09:37:11;98542.50;;;-1.01;72.02
69980;BME280;57318;56.232;43.944;2023-02-01T09:39:36;98542.97;;;-0.93;71.73
69980;BME280;57318;56.232;43.944;2023-02-01T09:46:03;98537.78;;;-0.76;71.93
69980;BME280;57318;56.232;43.944;2023-02-01T09:48:02;98533.22;;;-0.70;71.26
69980;BME280;57318;56.232;43.944;2023-02-01T09:50:37;98529.16;;;-0.59;71.53
69980;BME280;57318;56.232;43.944;2023-02-01T09:53:15;98529.00;;;-0.38;71.31
69980;BME280;57318;56.232;43.944;2023-02-01T09:55:47;98538.31;;;-0.32;70.69
69980;BME280;57318;56.232;43.944;2023-02-01T09:58:24;98530.09;;;-0.42;70.42
69980;BME280;57318;56.232;43.944;2023-02-01T10:00:55;98531.38;;;-0.51;70.66
69980;BME280;57318;56.232;43.944;2023-02-01T10:03:24;98527.78;;;-0.48;70.82
69980;BME280;57318;56.232;43.944;2023-02-01T10:08:45;98533.47;;;-0.40;70.21
69980;BME280;57318;56.232;43.944;2023-02-01T10:26:30;98527.41;;;-0.23;69.27
69980;BME280;57318;56.232;43.944;2023-02-01T10:29:04;98534.69;;;-0.12;69.12
69980;BME280;57318;56.232;43.944;2023-02-01T10:31:33;98533.22;;;-0.01;69.24
69980;BME280;57318;56.232;43.944;2023-02-01T10:34:27;98527.16;;;-0.01;68.92
69980;BME280;57318;56.232;43.944;2023-02-01T10:39:22;98530.31;;;-0.12;68.86
69980;BME280;57318;56.232;43.944;2023-02-01T10:41:48;98530.16;;;-0.09;68.57
69980;BME280;57318;56.232;43.944;2023-02-01T10:44:19;98524.63;;;-0.03;68.75
69980;BME280;57318;56.232;43.944;2023-02-01T10:46:45;98522.47;;;-0.12;68.79
69980;BME280;57318;56.232;43.944;2023-02-01T10:49:22;98530.47;;;-0.32;69.14
69980;BME280;57318;56.232;43.944;2023-02-01T10:54:38;98522.34;;;-0.61;70.12
69980;BME280;57318;56.232;43.944;2023-02-01T10:57:08;98517.41;;;-0.67;70.35
69980;BME280;57318;56.232;43.944;2023-02-01T10:59:34;98523.63;;;-0.70;70.51
69980;BME280;57318;56.232;43.944;2023-02-01T11:02:31;98522.28;;;-0.79;70.93
69980;BME280;57318;56.232;43.944;2023-02-01T11:05:05;98530.84;;;-0.75;71.72
69980;BME280;57318;56.232;43.944;2023-02-01T11:07:34;98530.69;;;-0.72;71.62
69980;BME280;57318;56.232;43.944;2023-02-01T11:10:01;98531.16;;;-0.64;71.37
69980;BME280;57318;56.232;43.944;2023-02-01T11:12:31;98531.06;;;-0.62;71.24
69980;BME280;57318;56.232;43.944;2023-02-01T11:15:01;98536.00;;;-0.56;71.57
69980;BME280;57318;56.232;43.944;2023-02-01T11:17:40;98547.94;;;-0.52;71.08
69980;BME280;57318;56.232;43.944;2023-02-01T11:20:19;98549.44;;;-0.29;70.93
69980;BME280;57318;56.232;43.944;2023-02-01T11:22:53;98540.91;;;-0.15;70.16
69980;BME280;57318;56.232;43.944;2023-02-01T11:25:20;98546.19;;;0.01;69.39
69980;BME280;57318;56.232;43.944;2023-02-01T11:27:50;98546.66;;;-0.08;69.15
69980;BME280;57318;56.232;43.944;2023-02-01T11:30:25;98545.97;;;-0.12;69.39
69980;BME280;57318;56.232;43.944;2023-02-01T11:32:52;98556.13;;;-0.23;69.52
69980;BME280;57318;56.232;43.944;2023-02-01T11:35:20;98553.91;;;-0.31;69.46
69980;BME280;57318;56.232;43.944;2023-02-01T11:37:56;98551.75;;;-0.40;69.81
69980;BME280;57318;56.232;43.944;2023-02-01T11:40:37;98561.88;;;-0.51;70.02
69980;BME280;57318;56.232;43.944;2023-02-01T11:43:08;98554.25;;;-0.56;70.10
69980;BME280;57318;56.232;43.944;2023-02-01T11:45:34;98560.28;;;-0.73;70.67
69980;BME280;57318;56.232;43.944;2023-02-01T11:48:00;98559.16;;;-0.67;70.91
69980;BME280;57318;56.232;43.944;2023-02-01T11:50:46;98559.47;;;-0.74;71.24
69980;BME280;57318;56.232;43.944;2023-02-01T11:53:39;98562.50;;;-0.83;71.76
69980;BME280;57318;56.232;43.944;2023-02-01T12:12:36;98548.84;;;-1.07;75.74
69980;BME280;57318;56.232;43.944;2023-02-01T12:15:12;98551.53;;;-1.09;76.04
69980;BME280;57318;56.232;43.944;2023-02-01T12:26:44;98554.38;;;-1.13;77.08
69980;BME280;57318;56.232;43.944;2023-02-01T12:29:34;98549.38;;;-1.18;77.30
69980;BME280;57318;56.232;43.944;2023-02-01T12:32:32;98549.78;;;-1.27;77.95
69980;BME280;57318;56.232;43.944;2023-02-01T12:43:58;98554.13;;;-1.47;79.17
69980;BME280;57318;56.232;43.944;2023-02-01T12:46:31;98556.09;;;-1.52;79.11
69980;BME280;57318;56.232;43.944;2023-02-01T12:49:10;98558.91;;;-1.56;79.44
69980;BME280;57318;56.232;43.944;2023-02-01T12:51:42;98553.91;;;-1.61;79.95
69980;BME280;57318;56.232;43.944;2023-02-01T12:54:22;98559.97;;;-1.60;80.04
69980;BME280;57318;56.232;43.944;2023-02-01T12:56:57;98554.19;;;-1.67;80.35
69980;BME280;57318;56.232;43.944;2023-02-01T12:59:34;98556.66;;;-1.64;80.66
69980;BME280;57318;56.232;43.944;2023-02-01T13:04:48;98563.06;;;-1.71;81.00
69980;BME280;57318;56.232;43.944;2023-02-01T13:07:30;98568.28;;;-1.71;81.30
69980;BME280;57318;56.232;43.944;2023-02-01T13:10:17;98559.09;;;-1.80;81.52
69980;BME280;57318;56.232;43.944;2023-02-01T13:13:53;98560.06;;;-1.83;81.86
69980;BME280;57318;56.232;43.944;2023-02-01T13:15:58;98557.66;;;-1.87;81.95
69980;BME280;57318;56.232;43.944;2023-02-01T13:18:34;98564.75;;;-1.91;82.56
69980;BME280;57318;56.232;43.944;2023-02-01T13:21:25;98558.03;;;-1.95;82.91
69980;BME280;57318;56.232;43.944;2023-02-01T13:23:55;98561.66;;;-1.99;83.24
69980;BME280;57318;56.232;43.944;2023-02-01T13:26:22;98552.34;;;-2.05;83.33
69980;BME280;57318;56.232;43.944;2023-02-01T13:37:14;98553.47;;;-2.10;84.37
69980;BME280;57318;56.232;43.944;2023-02-01T13:42:53;98548.31;;;-2.12;84.71
69980;BME280;57318;56.232;43.944;2023-02-01T13:45:24;98556.25;;;-2.15;84.81
69980;BME280;57318;56.232;43.944;2023-02-01T13:47:54;98556.97;;;-2.11;85.08
69980;BME280;57318;56.232;43.944;2023-02-01T13:50:38;98565.66;;;-2.12;85.20
69980;BME280;57318;56.232;43.944;2023-02-01T13:55:41;98549.16;;;-2.11;85.51
69980;BME280;57318;56.232;43.944;2023-02-01T13:58:19;98558.53;;;-2.07;85.76
69980;BME280;57318;56.232;43.944;2023-02-01T14:00:47;98559.38;;;-2.07;85.74
69980;BME280;57318;56.232;43.944;2023-02-01T14:03:18;98565.41;;;-2.06;86.00
69980;BME280;57318;56.232;43.944;2023-02-01T14:08:21;98578.38;;;-2.05;86.53
69980;BME280;57318;56.232;43.944;2023-02-01T14:10:59;98566.28;;;-2.06;86.39
69980;BME280;57318;56.232;43.944;2023-02-01T14:13:38;98566.28;;;-2.06;86.69
69980;BME280;57318;56.232;43.944;2023-02-01T14:23:44;98585.41;;;-2.07;87.27
69980;BME280;57318;56.232;43.944;2023-02-01T14:26:14;98585.34;;;-2.05;87.37
69980;BME280;57318;56.232;43.944;2023-02-01T14:28:44;98588.84;;;-2.06;87.56
69980;BME280;57318;56.232;43.944;2023-02-01T14:31:17;98590.63;;;-2.07;87.87
69980;BME280;57318;56.232;43.944;2023-02-01T14:33:45;98588.72;;;-2.03;87.99
69980;BME280;57318;56.232;43.944;2023-02-01T14:36:12;98586.91;;;-2.01;87.78
69980;BME280;57318;56.232;43.944;2023-02-01T14:38:39;98587.69;;;-1.99;87.92
69980;BME280;57318;56.232;43.944;2023-02-01T14:41:26;98592.00;;;-1.98;87.80
69980;BME280;57318;56.232;43.944;2023-02-01T14:49:32;98588.38;;;-1.95;88.06
69980;BME280;57318;56.232;43.944;2023-02-01T14:51:59;98590.94;;;-1.94;88.33
69980;BME280;57318;56.232;43.944;2023-02-01T14:54:25;98585.59;;;-1.91;88.32
69980;BME280;57318;56.232;43.944;2023-02-01T14:56:52;98580.38;;;-1.91;88.21
69980;BME280;57318;56.232;43.944;2023-02-01T14:59:21;98585.72;;;-1.94;88.18
69980;BME280;57318;56.232;43.944;2023-02-01T15:01:56;98593.53;;;-1.94;88.37
69980;BME280;57318;56.232;43.944;2023-02-01T15:04:26;98590.66;;;-1.88;88.45
69980;BME280;57318;56.232;43.944;2023-02-01T15:06:54;98590.53;;;-1.85;88.47
69980;BME280;57318;56.232;43.944;2023-02-01T15:12:14;98593.06;;;-1.83;88.71